Lakewood, CO (80226)

4:14 PM MST on February 09, 2016 (GMT -0700)
Belmar Gardens | | Change Station
CLOSE
Current Station
Personal Weather Station
Location: Lakewood, CO
Elevation: 5568 ft
Nearby Weather Stations

Elev 5568 ft 39.70 °N, 105.10 °W | Updated 5 days ago

Partly Cloudy
Partly Cloudy
45 °F
Feels Like 41 °F
N
7
Wind Variable Wind from WSW
Gusts mph

Today
High -- | Low -- °F
--% Chance of Precip.
Yesterday
High -- | Low -- °F
Precip. -- in
Pressure 30.29 in
Visibility 70.0 miles
Clouds Clear
Windchill 41 °F
Dew Point 21 °F
Humidity 37%
Rainfall in
Snow Depth Not available.
7:00 AM 5:29 PM
New Moon, 2% visible
METAR KBJC 092246Z 12006KT 70SM SKC 13/M09 A3029
Pressure 30.29 in
Visibility 70.0 miles
Clouds Clear
Windchill 41 °F
Dew Point 21 °F
Humidity 37%
Rainfall in
Snow Depth Not available.
7:00 AM 5:29 PM
New Moon, 2% visible
METAR KBJC 092246Z 12006KT 70SM SKC 13/M09 A3029

10-Day Weather Forecast

Almanac

Astronomy

Feb. 09, 2016 Rise Set
Actual Time
Civil Twilight
Nautical Twilight
Astronomical Twilight
Moon
Length of Visible Light
Length of Day
Tomorrow will be .
, % of the Moon is Illuminated

Today's Extremes

State Highs State Lows

Community

WunderPhotos

Upload Photos

1,891,728 photos uploaded!

WunderBlog® & News

Nearby

Air Quality

  Air Quality AQ Index Pollutant
Not available.

Snow Depth

Station Depth Elevation

Earthquake Activity

City Distance Mag. Time & Date
Minimum magnitude displayed is 2.5.

Coastal Water Temperatures

Place Temperature

Stations

Nearby Weather Stations

Station Location Temp. Windchill Dew Point Humidity Wind Precip. Elev Updated Type
                   

Watches & Warnings

There are currently no watches in effect.